Time,TemperatureF,DewpointF,PressureIn,WindDirection,WindDirectionDegrees,WindSpeedMPH,WindSpeedGustMPH,Humidity,HourlyPrecipIn,Conditions,Clouds,dailyrainin,SoftwareType,DateUTC
2013-06-16 00:17:00,67.8,60.8,29.92,SE,135,2.0,2.2,78,0.00,,,0.00,open2300-1.11,2013-06-16 05:17:00,
2013-06-16 01:17:00,67.1,61.1,29.94,SE,135,0.0,5.4,81,0.00,,,0.00,open2300-1.11,2013-06-16 06:17:00,
2013-06-16 02:17:00,67.3,61.6,29.94,SSE,157,0.0,0.0,82,0.00,,,0.00,open2300-1.11,2013-06-16 07:17:00,
2013-06-16 03:17:00,67.3,62.0,29.94,SSE,157,0.0,0.0,83,0.00,,,0.00,open2300-1.11,2013-06-16 08:17:00,
2013-06-16 04:17:00,67.1,61.8,29.94,ENE,67,0.0,0.0,83,0.00,,,0.00,open2300-1.11,2013-06-16 09:17:00,
2013-06-16 05:17:00,66.9,61.9,29.93,NNE,22,0.0,0.0,84,0.00,,,0.00,open2300-1.11,2013-06-16 10:17:00,
2013-06-16 06:17:00,66.6,62.2,29.96,NW,315,0.0,0.0,86,0.00,,,0.00,open2300-1.11,2013-06-16 11:17:00,
2013-06-16 07:17:00,66.6,62.5,29.96,NW,315,0.0,0.0,87,0.00,,,0.00,open2300-1.11,2013-06-16 12:17:00,
2013-06-16 08:17:00,67.1,62.7,29.97,NW,315,0.0,0.0,86,0.00,,,0.00,open2300-1.11,2013-06-16 13:17:00,
2013-06-16 09:17:00,70.3,64.9,29.97,NNE,22,0.0,5.6,83,0.00,,,0.00,open2300-1.11,2013-06-16 14:17:00,
2013-06-16 10:17:00,75.9,67.0,29.96,NE,45,1.6,4.9,74,0.00,,,0.00,open2300-1.11,2013-06-16 15:17:00,
2013-06-16 11:17:00,80.8,68.8,29.98,ESE,112,0.0,5.4,67,0.00,,,0.00,open2300-1.11,2013-06-16 16:17:00,
2013-06-16 12:17:00,84.7,68.3,29.99,North,0,3.6,5.8,58,0.00,,,0.00,open2300-1.11,2013-06-16 17:17:00,
2013-06-16 13:17:00,87.4,68.2,29.97,ENE,67,4.2,5.4,53,0.00,,,0.00,open2300-1.11,2013-06-16 18:17:00,
2013-06-16 14:17:00,90.0,68.2,29.96,East,90,1.8,4.9,49,0.00,,,0.00,open2300-1.11,2013-06-16 19:17:00,
2013-06-16 15:17:00,91.4,67.6,29.94,NE,45,0.0,4.5,46,0.00,,,0.00,open2300-1.11,2013-06-16 20:17:00,
2013-06-16 16:17:00,91.8,65.3,29.95,ENE,67,0.4,5.6,42,0.00,,,0.00,open2300-1.11,2013-06-16 21:17:00,
2013-06-16 17:17:00,88.3,63.6,29.94,ENE,67,0.0,4.7,44,0.00,,,0.00,open2300-1.11,2013-06-16 22:17:00,
2013-06-16 18:17:00,85.8,63.2,29.93,ENE,67,1.6,4.2,47,0.00,,,0.00,open2300-1.11,2013-06-16 23:17:00,
2013-06-16 19:17:00,83.5,63.0,29.94,NE,45,0.0,5.8,50,0.00,,,0.00,open2300-1.11,2013-06-17 00:17:00,
2013-06-16 20:17:00,81.5,62.1,29.98,NNE,22,3.8,5.6,51,0.00,,,0.00,open2300-1.11,2013-06-17 01:17:00,
2013-06-16 21:17:00,79.0,59.3,29.98,NNE,22,0.0,4.0,51,0.00,,,0.00,open2300-1.11,2013-06-17 02:17:00,
2013-06-16 22:17:00,76.1,59.2,29.97,NW,315,0.0,0.0,56,0.00,,,0.00,open2300-1.11,2013-06-17 03:17:00,
2013-06-16 23:17:00,75.7,58.9,29.92,NNE,22,0.0,3.6,56,0.00,,,0.00,open2300-1.11,2013-06-17 04:17:00,